sensor_id;sensor_type;location;lat;lon;timestamp;P1;durP1;ratioP1;P2;durP2;ratioP2
30010;SDS011;16851;53.564;8.112;2023-12-20T00:03:59;21.70;;;3.63;;
30010;SDS011;16851;53.564;8.112;2023-12-20T00:09:01;28.37;;;3.50;;
30010;SDS011;16851;53.564;8.112;2023-12-20T00:14:05;25.37;;;3.40;;
30010;SDS011;16851;53.564;8.112;2023-12-20T00:19:15;27.83;;;2.97;;
30010;SDS011;16851;53.564;8.112;2023-12-20T00:24:16;26.60;;;3.73;;
30010;SDS011;16851;53.564;8.112;2023-12-20T00:29:19;30.90;;;3.50;;
30010;SDS011;16851;53.564;8.112;2023-12-20T00:34:23;23.90;;;3.03;;
30010;SDS011;16851;53.564;8.112;2023-12-20T00:39:27;19.03;;;3.30;;
30010;SDS011;16851;53.564;8.112;2023-12-20T00:44:29;24.60;;;3.50;;
30010;SDS011;16851;53.564;8.112;2023-12-20T00:49:31;14.13;;;2.67;;
30010;SDS011;16851;53.564;8.112;2023-12-20T00:54:33;25.23;;;3.23;;
30010;SDS011;16851;53.564;8.112;2023-12-20T00:59:37;29.40;;;3.93;;
30010;SDS011;16851;53.564;8.112;2023-12-20T01:04:39;21.00;;;2.83;;
30010;SDS011;16851;53.564;8.112;2023-12-20T01:09:41;26.97;;;3.90;;
30010;SDS011;16851;53.564;8.112;2023-12-20T01:14:45;18.67;;;3.40;;
30010;SDS011;16851;53.564;8.112;2023-12-20T01:19:49;21.77;;;2.90;;
30010;SDS011;16851;53.564;8.112;2023-12-20T01:24:51;8.57;;;1.73;;
30010;SDS011;16851;53.564;8.112;2023-12-20T01:29:53;21.20;;;2.57;;
30010;SDS011;16851;53.564;8.112;2023-12-20T01:34:55;13.80;;;2.23;;
30010;SDS011;16851;53.564;8.112;2023-12-20T01:40:02;21.23;;;3.00;;
30010;SDS011;16851;53.564;8.112;2023-12-20T01:45:04;19.37;;;2.80;;
30010;SDS011;16851;53.564;8.112;2023-12-20T01:50:07;16.50;;;3.17;;
30010;SDS011;16851;53.564;8.112;2023-12-20T01:55:10;16.47;;;2.53;;
30010;SDS011;16851;53.564;8.112;2023-12-20T02:00:17;22.87;;;2.80;;
30010;SDS011;16851;53.564;8.112;2023-12-20T02:05:35;25.73;;;3.13;;
30010;SDS011;16851;53.564;8.112;2023-12-20T02:10:38;17.60;;;2.47;;
30010;SDS011;16851;53.564;8.112;2023-12-20T02:15:42;14.43;;;2.90;;
30010;SDS011;16851;53.564;8.112;2023-12-20T02:20:45;25.43;;;3.00;;
30010;SDS011;16851;53.564;8.112;2023-12-20T02:25:49;16.77;;;2.53;;
30010;SDS011;16851;53.564;8.112;2023-12-20T02:30:53;25.17;;;3.63;;
30010;SDS011;16851;53.564;8.112;2023-12-20T02:36:00;22.87;;;3.73;;
30010;SDS011;16851;53.564;8.112;2023-12-20T02:41:02;17.20;;;3.37;;
30010;SDS011;16851;53.564;8.112;2023-12-20T02:46:06;18.30;;;3.13;;
30010;SDS011;16851;53.564;8.112;2023-12-20T02:51:12;25.07;;;3.27;;
30010;SDS011;16851;53.564;8.112;2023-12-20T02:56:14;25.67;;;3.23;;
30010;SDS011;16851;53.564;8.112;2023-12-20T03:01:16;15.57;;;2.70;;
30010;SDS011;16851;53.564;8.112;2023-12-20T03:06:18;25.50;;;3.97;;
30010;SDS011;16851;53.564;8.112;2023-12-20T03:11:26;17.83;;;3.20;;
30010;SDS011;16851;53.564;8.112;2023-12-20T03:16:31;29.30;;;3.27;;
30010;SDS011;16851;53.564;8.112;2023-12-20T03:21:37;17.93;;;2.67;;
30010;SDS011;16851;53.564;8.112;2023-12-20T03:26:39;21.57;;;3.43;;
30010;SDS011;16851;53.564;8.112;2023-12-20T03:31:43;18.97;;;3.40;;
30010;SDS011;16851;53.564;8.112;2023-12-20T03:36:45;14.60;;;2.40;;
30010;SDS011;16851;53.564;8.112;2023-12-20T03:41:49;17.53;;;3.07;;
30010;SDS011;16851;53.564;8.112;2023-12-20T03:46:51;18.27;;;2.77;;
30010;SDS011;16851;53.564;8.112;2023-12-20T03:51:53;27.80;;;3.27;;
30010;SDS011;16851;53.564;8.112;2023-12-20T03:56:59;19.70;;;3.50;;
30010;SDS011;16851;53.564;8.112;2023-12-20T04:02:06;23.70;;;3.53;;
30010;SDS011;16851;53.564;8.112;2023-12-20T04:07:08;25.63;;;3.80;;
30010;SDS011;16851;53.564;8.112;2023-12-20T04:12:14;23.07;;;3.50;;
30010;SDS011;16851;53.564;8.112;2023-12-20T04:17:17;20.47;;;3.70;;
30010;SDS011;16851;53.564;8.112;2023-12-20T04:22:19;21.73;;;3.33;;
30010;SDS011;16851;53.564;8.112;2023-12-20T04:27:21;19.60;;;3.33;;
30010;SDS011;16851;53.564;8.112;2023-12-20T04:32:25;26.53;;;3.77;;
30010;SDS011;16851;53.564;8.112;2023-12-20T04:37:29;33.07;;;4.40;;
30010;SDS011;16851;53.564;8.112;2023-12-20T04:42:31;17.60;;;3.03;;
30010;SDS011;16851;53.564;8.112;2023-12-20T04:47:33;19.97;;;3.33;;
30010;SDS011;16851;53.564;8.112;2023-12-20T04:52:37;34.57;;;4.43;;
30010;SDS011;16851;53.564;8.112;2023-12-20T04:57:39;37.37;;;5.03;;
30010;SDS011;16851;53.564;8.112;2023-12-20T05:02:43;31.63;;;4.33;;
30010;SDS011;16851;53.564;8.112;2023-12-20T05:07:48;43.47;;;5.07;;
30010;SDS011;16851;53.564;8.112;2023-12-20T05:12:50;27.80;;;3.87;;
30010;SDS011;16851;53.564;8.112;2023-12-20T05:17:52;24.67;;;4.13;;
30010;SDS011;16851;53.564;8.112;2023-12-20T05:22:54;30.87;;;4.80;;
30010;SDS011;16851;53.564;8.112;2023-12-20T05:27:56;33.53;;;4.67;;
30010;SDS011;16851;53.564;8.112;2023-12-20T05:32:58;30.00;;;4.43;;
30010;SDS011;16851;53.564;8.112;2023-12-20T05:38:00;41.10;;;5.83;;
30010;SDS011;16851;53.564;8.112;2023-12-20T05:43:02;41.93;;;5.97;;
30010;SDS011;16851;53.564;8.112;2023-12-20T05:48:06;31.93;;;4.53;;
30010;SDS011;16851;53.564;8.112;2023-12-20T05:53:08;29.13;;;5.73;;
30010;SDS011;16851;53.564;8.112;2023-12-20T05:58:13;36.60;;;4.37;;
30010;SDS011;16851;53.564;8.112;2023-12-20T06:03:14;33.07;;;4.53;;
30010;SDS011;16851;53.564;8.112;2023-12-20T06:08:16;34.73;;;4.10;;
30010;SDS011;16851;53.564;8.112;2023-12-20T06:13:20;36.83;;;5.30;;
30010;SDS011;16851;53.564;8.112;2023-12-20T06:18:25;27.77;;;4.30;;
30010;SDS011;16851;53.564;8.112;2023-12-20T06:23:29;21.47;;;4.13;;
30010;SDS011;16851;53.564;8.112;2023-12-20T06:28:31;27.63;;;4.60;;
30010;SDS011;16851;53.564;8.112;2023-12-20T06:33:35;22.67;;;3.90;;
30010;SDS011;16851;53.564;8.112;2023-12-20T06:38:37;19.90;;;4.23;;
30010;SDS011;16851;53.564;8.112;2023-12-20T06:43:40;38.33;;;5.30;;
30010;SDS011;16851;53.564;8.112;2023-12-20T06:48:50;29.87;;;4.10;;
30010;SDS011;16851;53.564;8.112;2023-12-20T06:53:54;27.87;;;4.43;;
30010;SDS011;16851;53.564;8.112;2023-12-20T06:58:58;26.17;;;4.07;;
30010;SDS011;16851;53.564;8.112;2023-12-20T07:04:02;27.20;;;3.70;;
30010;SDS011;16851;53.564;8.112;2023-12-20T07:09:05;38.13;;;5.03;;
30010;SDS011;16851;53.564;8.112;2023-12-20T07:14:06;33.37;;;4.97;;
30010;SDS011;16851;53.564;8.112;2023-12-20T07:19:13;38.03;;;5.63;;
30010;SDS011;16851;53.564;8.112;2023-12-20T07:24:15;31.53;;;4.93;;
30010;SDS011;16851;53.564;8.112;2023-12-20T07:29:19;36.93;;;5.50;;
30010;SDS011;16851;53.564;8.112;2023-12-20T07:34:21;32.23;;;5.40;;
30010;SDS011;16851;53.564;8.112;2023-12-20T07:39:23;25.43;;;4.27;;
30010;SDS011;16851;53.564;8.112;2023-12-20T07:44:25;32.90;;;4.83;;
30010;SDS011;16851;53.564;8.112;2023-12-20T07:49:27;38.27;;;4.93;;
30010;SDS011;16851;53.564;8.112;2023-12-20T07:54:32;33.23;;;5.40;;
30010;SDS011;16851;53.564;8.112;2023-12-20T07:59:38;20.20;;;2.83;;
30010;SDS011;16851;53.564;8.112;2023-12-20T08:04:40;26.80;;;3.87;;
30010;SDS011;16851;53.564;8.112;2023-12-20T08:09:42;31.37;;;5.33;;
30010;SDS011;16851;53.564;8.112;2023-12-20T08:14:45;44.73;;;6.53;;
30010;SDS011;16851;53.564;8.112;2023-12-20T08:19:47;42.50;;;5.90;;
30010;SDS011;16851;53.564;8.112;2023-12-20T08:24:49;15.90;;;2.30;;
30010;SDS011;16851;53.564;8.112;2023-12-20T08:29:51;26.97;;;3.03;;
30010;SDS011;16851;53.564;8.112;2023-12-20T08:34:53;17.50;;;2.17;;
30010;SDS011;16851;53.564;8.112;2023-12-20T08:39:55;18.60;;;2.67;;
30010;SDS011;16851;53.564;8.112;2023-12-20T08:44:59;27.93;;;2.43;;
30010;SDS011;16851;53.564;8.112;2023-12-20T08:50:05;26.77;;;3.17;;
30010;SDS011;16851;53.564;8.112;2023-12-20T08:55:08;23.53;;;3.60;;
30010;SDS011;16851;53.564;8.112;2023-12-20T09:00:12;22.13;;;2.87;;
30010;SDS011;16851;53.564;8.112;2023-12-20T09:05:14;24.87;;;3.20;;
30010;SDS011;16851;53.564;8.112;2023-12-20T09:10:19;8.03;;;1.37;;
30010;SDS011;16851;53.564;8.112;2023-12-20T09:15:25;13.53;;;2.37;;
30010;SDS011;16851;53.564;8.112;2023-12-20T09:20:34;19.73;;;2.90;;
30010;SDS011;16851;53.564;8.112;2023-12-20T09:25:37;12.87;;;2.13;;
30010;SDS011;16851;53.564;8.112;2023-12-20T09:30:41;13.50;;;1.63;;
30010;SDS011;16851;53.564;8.112;2023-12-20T09:35:44;10.17;;;1.80;;
30010;SDS011;16851;53.564;8.112;2023-12-20T09:40:48;13.25;;;2.47;;
30010;SDS011;16851;53.564;8.112;2023-12-20T09:45:50;13.13;;;1.77;;
30010;SDS011;16851;53.564;8.112;2023-12-20T09:50:55;14.73;;;1.87;;
30010;SDS011;16851;53.564;8.112;2023-12-20T09:55:58;8.77;;;1.23;;
30010;SDS011;16851;53.564;8.112;2023-12-20T10:01:06;13.10;;;2.17;;
30010;SDS011;16851;53.564;8.112;2023-12-20T10:06:09;12.20;;;1.33;;
30010;SDS011;16851;53.564;8.112;2023-12-20T10:11:13;13.23;;;1.63;;
30010;SDS011;16851;53.564;8.112;2023-12-20T10:16:23;10.83;;;1.87;;
30010;SDS011;16851;53.564;8.112;2023-12-20T10:21:26;17.37;;;2.07;;
30010;SDS011;16851;53.564;8.112;2023-12-20T10:26:28;10.37;;;2.17;;
30010;SDS011;16851;53.564;8.112;2023-12-20T10:31:31;20.17;;;2.90;;
30010;SDS011;16851;53.564;8.112;2023-12-20T10:36:37;17.88;;;3.65;;
30010;SDS011;16851;53.564;8.112;2023-12-20T10:41:39;21.77;;;3.30;;
30010;SDS011;16851;53.564;8.112;2023-12-20T10:46:43;15.57;;;2.93;;
30010;SDS011;16851;53.564;8.112;2023-12-20T10:51:52;23.75;;;3.70;;
30010;SDS011;16851;53.564;8.112;2023-12-20T10:56:58;18.30;;;2.60;;
30010;SDS011;16851;53.564;8.112;2023-12-20T11:02:00;22.30;;;3.60;;
30010;SDS011;16851;53.564;8.112;2023-12-20T11:07:08;16.53;;;2.80;;
30010;SDS011;16851;53.564;8.112;2023-12-20T11:12:41;12.47;;;2.50;;
30010;SDS011;16851;53.564;8.112;2023-12-20T11:17:57;14.43;;;1.90;;
30010;SDS011;16851;53.564;8.112;2023-12-20T11:23:02;14.55;;;2.80;;
30010;SDS011;16851;53.564;8.112;2023-12-20T11:28:11;17.03;;;2.80;;
30010;SDS011;16851;53.564;8.112;2023-12-20T11:33:14;21.73;;;3.27;;
30010;SDS011;16851;53.564;8.112;2023-12-20T11:38:19;17.87;;;3.57;;
30010;SDS011;16851;53.564;8.112;2023-12-20T11:43:34;35.13;;;4.87;;
30010;SDS011;16851;53.564;8.112;2023-12-20T11:48:38;27.47;;;4.13;;
30010;SDS011;16851;53.564;8.112;2023-12-20T11:53:43;22.27;;;3.43;;
30010;SDS011;16851;53.564;8.112;2023-12-20T11:58:44;22.37;;;4.00;;
30010;SDS011;16851;53.564;8.112;2023-12-20T12:04:01;20.03;;;3.50;;
30010;SDS011;16851;53.564;8.112;2023-12-20T12:09:07;19.73;;;3.67;;
30010;SDS011;16851;53.564;8.112;2023-12-20T12:14:12;31.10;;;5.43;;
30010;SDS011;16851;53.564;8.112;2023-12-20T12:19:21;26.90;;;4.27;;
30010;SDS011;16851;53.564;8.112;2023-12-20T12:24:26;27.47;;;4.40;;
30010;SDS011;16851;53.564;8.112;2023-12-20T12:29:31;41.43;;;6.30;;
30010;SDS011;16851;53.564;8.112;2023-12-20T12:34:38;20.50;;;3.93;;
30010;SDS011;16851;53.564;8.112;2023-12-20T12:39:41;24.87;;;5.03;;
30010;SDS011;16851;53.564;8.112;2023-12-20T12:44:43;32.37;;;5.37;;
30010;SDS011;16851;53.564;8.112;2023-12-20T12:49:45;31.30;;;4.97;;
30010;SDS011;16851;53.564;8.112;2023-12-20T12:54:50;25.07;;;4.47;;
30010;SDS011;16851;53.564;8.112;2023-12-20T12:59:56;26.27;;;4.53;;
30010;SDS011;16851;53.564;8.112;2023-12-20T13:04:59;27.63;;;5.43;;
30010;SDS011;16851;53.564;8.112;2023-12-20T13:10:06;33.33;;;4.80;;
30010;SDS011;16851;53.564;8.112;2023-12-20T13:15:12;30.23;;;5.33;;
30010;SDS011;16851;53.564;8.112;2023-12-20T13:20:14;28.20;;;5.37;;
30010;SDS011;16851;53.564;8.112;2023-12-20T13:25:18;29.23;;;4.77;;
30010;SDS011;16851;53.564;8.112;2023-12-20T13:30:23;35.40;;;4.83;;
30010;SDS011;16851;53.564;8.112;2023-12-20T13:35:32;32.23;;;5.47;;
30010;SDS011;16851;53.564;8.112;2023-12-20T13:40:35;21.47;;;3.53;;
30010;SDS011;16851;53.564;8.112;2023-12-20T13:45:40;16.90;;;2.67;;
30010;SDS011;16851;53.564;8.112;2023-12-20T13:50:41;21.67;;;3.50;;
30010;SDS011;16851;53.564;8.112;2023-12-20T13:55:43;17.63;;;2.90;;
30010;SDS011;16851;53.564;8.112;2023-12-20T14:00:45;22.47;;;3.47;;
30010;SDS011;16851;53.564;8.112;2023-12-20T14:05:47;19.37;;;3.90;;
30010;SDS011;16851;53.564;8.112;2023-12-20T14:10:51;32.60;;;4.40;;
30010;SDS011;16851;53.564;8.112;2023-12-20T14:15:53;34.10;;;4.37;;
30010;SDS011;16851;53.564;8.112;2023-12-20T14:21:00;29.93;;;4.40;;
30010;SDS011;16851;53.564;8.112;2023-12-20T14:26:02;36.13;;;5.80;;
30010;SDS011;16851;53.564;8.112;2023-12-20T14:31:09;34.83;;;5.10;;
30010;SDS011;16851;53.564;8.112;2023-12-20T14:36:12;28.77;;;4.43;;
30010;SDS011;16851;53.564;8.112;2023-12-20T14:41:14;24.83;;;5.30;;
30010;SDS011;16851;53.564;8.112;2023-12-20T14:46:16;31.53;;;4.80;;
30010;SDS011;16851;53.564;8.112;2023-12-20T14:51:18;17.50;;;3.80;;
30010;SDS011;16851;53.564;8.112;2023-12-20T14:56:20;25.60;;;4.10;;
30010;SDS011;16851;53.564;8.112;2023-12-20T15:01:24;22.67;;;3.70;;
30010;SDS011;16851;53.564;8.112;2023-12-20T15:06:29;18.87;;;3.40;;
30010;SDS011;16851;53.564;8.112;2023-12-20T15:11:33;22.80;;;3.60;;
30010;SDS011;16851;53.564;8.112;2023-12-20T15:16:36;18.03;;;3.60;;
30010;SDS011;16851;53.564;8.112;2023-12-20T15:21:38;16.03;;;3.13;;
30010;SDS011;16851;53.564;8.112;2023-12-20T15:26:48;57.47;;;20.57;;
30010;SDS011;16851;53.564;8.112;2023-12-20T15:31:50;21.77;;;4.77;;
30010;SDS011;16851;53.564;8.112;2023-12-20T15:36:56;25.73;;;4.10;;
30010;SDS011;16851;53.564;8.112;2023-12-20T15:42:01;7.90;;;1.73;;
30010;SDS011;16851;53.564;8.112;2023-12-20T15:47:05;22.10;;;4.30;;
30010;SDS011;16851;53.564;8.112;2023-12-20T15:52:09;32.37;;;4.87;;
30010;SDS011;16851;53.564;8.112;2023-12-20T15:57:12;25.67;;;4.13;;
30010;SDS011;16851;53.564;8.112;2023-12-20T16:02:20;34.00;;;5.90;;
30010;SDS011;16851;53.564;8.112;2023-12-20T16:07:24;30.50;;;4.93;;
30010;SDS011;16851;53.564;8.112;2023-12-20T16:12:26;24.83;;;4.53;;
30010;SDS011;16851;53.564;8.112;2023-12-20T16:17:27;34.50;;;4.47;;
30010;SDS011;16851;53.564;8.112;2023-12-20T16:22:38;25.20;;;3.63;;
30010;SDS011;16851;53.564;8.112;2023-12-20T16:27:40;21.87;;;3.17;;
30010;SDS011;16851;53.564;8.112;2023-12-20T16:32:48;24.27;;;4.10;;
30010;SDS011;16851;53.564;8.112;2023-12-20T16:37:54;20.17;;;3.53;;
30010;SDS011;16851;53.564;8.112;2023-12-20T16:43:00;18.10;;;2.90;;
30010;SDS011;16851;53.564;8.112;2023-12-20T16:48:04;19.13;;;2.87;;
30010;SDS011;16851;53.564;8.112;2023-12-20T16:53:10;11.43;;;2.37;;
30010;SDS011;16851;53.564;8.112;2023-12-20T16:58:14;16.43;;;3.00;;
30010;SDS011;16851;53.564;8.112;2023-12-20T17:03:18;15.97;;;2.30;;
30010;SDS011;16851;53.564;8.112;2023-12-20T17:08:21;11.40;;;2.40;;
30010;SDS011;16851;53.564;8.112;2023-12-20T17:13:23;13.17;;;1.83;;
30010;SDS011;16851;53.564;8.112;2023-12-20T17:18:25;12.70;;;2.27;;
30010;SDS011;16851;53.564;8.112;2023-12-20T17:23:27;11.73;;;2.70;;
30010;SDS011;16851;53.564;8.112;2023-12-20T17:28:32;11.60;;;2.80;;
30010;SDS011;16851;53.564;8.112;2023-12-20T17:33:36;13.37;;;2.60;;
30010;SDS011;16851;53.564;8.112;2023-12-20T17:38:39;9.17;;;1.43;;
30010;SDS011;16851;53.564;8.112;2023-12-20T17:43:43;8.77;;;1.73;;
30010;SDS011;16851;53.564;8.112;2023-12-20T17:48:45;14.80;;;2.80;;
30010;SDS011;16851;53.564;8.112;2023-12-20T17:53:47;22.00;;;4.87;;
30010;SDS011;16851;53.564;8.112;2023-12-20T17:58:51;16.17;;;3.23;;
30010;SDS011;16851;53.564;8.112;2023-12-20T18:03:55;11.50;;;2.43;;
30010;SDS011;16851;53.564;8.112;2023-12-20T18:08:58;19.17;;;3.50;;
30010;SDS011;16851;53.564;8.112;2023-12-20T18:14:00;21.27;;;5.17;;
30010;SDS011;16851;53.564;8.112;2023-12-20T18:19:04;17.07;;;3.17;;
30010;SDS011;16851;53.564;8.112;2023-12-20T18:24:06;13.03;;;2.70;;
30010;SDS011;16851;53.564;8.112;2023-12-20T18:29:12;18.37;;;3.27;;
30010;SDS011;16851;53.564;8.112;2023-12-20T18:34:15;13.43;;;3.20;;
30010;SDS011;16851;53.564;8.112;2023-12-20T18:39:16;19.30;;;3.57;;
30010;SDS011;16851;53.564;8.112;2023-12-20T18:44:25;16.10;;;3.67;;
30010;SDS011;16851;53.564;8.112;2023-12-20T18:49:27;21.40;;;4.90;;
30010;SDS011;16851;53.564;8.112;2023-12-20T18:54:29;21.90;;;4.57;;
30010;SDS011;16851;53.564;8.112;2023-12-20T18:59:31;20.17;;;4.93;;
30010;SDS011;16851;53.564;8.112;2023-12-20T19:04:33;24.23;;;5.37;;
30010;SDS011;16851;53.564;8.112;2023-12-20T19:09:38;15.07;;;4.63;;
30010;SDS011;16851;53.564;8.112;2023-12-20T19:14:40;15.50;;;5.73;;
30010;SDS011;16851;53.564;8.112;2023-12-20T19:19:44;17.30;;;5.50;;
30010;SDS011;16851;53.564;8.112;2023-12-20T19:24:46;20.70;;;7.07;;
30010;SDS011;16851;53.564;8.112;2023-12-20T19:29:50;22.90;;;8.37;;
30010;SDS011;16851;53.564;8.112;2023-12-20T19:34:58;20.80;;;6.60;;
30010;SDS011;16851;53.564;8.112;2023-12-20T19:40:03;31.13;;;7.60;;
30010;SDS011;16851;53.564;8.112;2023-12-20T19:45:06;22.63;;;7.17;;
30010;SDS011;16851;53.564;8.112;2023-12-20T19:50:08;23.70;;;7.43;;
30010;SDS011;16851;53.564;8.112;2023-12-20T19:55:12;20.37;;;7.80;;
30010;SDS011;16851;53.564;8.112;2023-12-20T20:00:14;17.37;;;5.33;;
30010;SDS011;16851;53.564;8.112;2023-12-20T20:05:18;20.67;;;6.90;;
30010;SDS011;16851;53.564;8.112;2023-12-20T20:10:23;18.30;;;5.70;;
30010;SDS011;16851;53.564;8.112;2023-12-20T20:15:27;16.27;;;6.60;;
30010;SDS011;16851;53.564;8.112;2023-12-20T20:20:31;10.57;;;4.57;;
30010;SDS011;16851;53.564;8.112;2023-12-20T20:25:33;5.17;;;3.17;;
30010;SDS011;16851;53.564;8.112;2023-12-20T20:30:35;8.67;;;3.50;;
30010;SDS011;16851;53.564;8.112;2023-12-20T20:35:37;7.70;;;2.87;;
30010;SDS011;16851;53.564;8.112;2023-12-20T20:40:44;7.97;;;3.23;;
30010;SDS011;16851;53.564;8.112;2023-12-20T20:45:49;8.07;;;3.80;;
30010;SDS011;16851;53.564;8.112;2023-12-20T20:50:51;6.87;;;3.13;;
30010;SDS011;16851;53.564;8.112;2023-12-20T20:55:54;8.80;;;3.20;;
30010;SDS011;16851;53.564;8.112;2023-12-20T21:00:56;5.43;;;2.70;;
30010;SDS011;16851;53.564;8.112;2023-12-20T21:05:58;18.63;;;3.67;;
30010;SDS011;16851;53.564;8.112;2023-12-20T21:11:00;9.17;;;2.90;;
30010;SDS011;16851;53.564;8.112;2023-12-20T21:16:02;21.57;;;4.93;;
30010;SDS011;16851;53.564;8.112;2023-12-20T21:21:07;26.20;;;5.20;;
30010;SDS011;16851;53.564;8.112;2023-12-20T21:26:11;31.37;;;5.50;;
30010;SDS011;16851;53.564;8.112;2023-12-20T21:31:14;22.87;;;4.20;;
30010;SDS011;16851;53.564;8.112;2023-12-20T21:36:19;15.50;;;3.67;;
30010;SDS011;16851;53.564;8.112;2023-12-20T21:41:24;30.80;;;6.23;;
30010;SDS011;16851;53.564;8.112;2023-12-20T21:46:28;31.97;;;5.20;;
30010;SDS011;16851;53.564;8.112;2023-12-20T21:51:35;24.80;;;5.27;;
30010;SDS011;16851;53.564;8.112;2023-12-20T21:56:42;35.13;;;5.80;;
30010;SDS011;16851;53.564;8.112;2023-12-20T22:01:47;37.80;;;5.23;;
30010;SDS011;16851;53.564;8.112;2023-12-20T22:06:52;33.53;;;5.37;;
30010;SDS011;16851;53.564;8.112;2023-12-20T22:11:56;32.67;;;5.63;;
30010;SDS011;16851;53.564;8.112;2023-12-20T22:16:58;22.67;;;3.57;;
30010;SDS011;16851;53.564;8.112;2023-12-20T22:21:59;29.07;;;4.30;;
30010;SDS011;16851;53.564;8.112;2023-12-20T22:27:02;33.70;;;4.63;;
30010;SDS011;16851;53.564;8.112;2023-12-20T22:32:04;32.47;;;4.73;;
30010;SDS011;16851;53.564;8.112;2023-12-20T22:37:09;32.83;;;5.10;;
30010;SDS011;16851;53.564;8.112;2023-12-20T22:42:11;25.23;;;4.17;;
30010;SDS011;16851;53.564;8.112;2023-12-20T22:47:16;32.80;;;5.80;;
30010;SDS011;16851;53.564;8.112;2023-12-20T22:52:19;30.73;;;4.47;;
30010;SDS011;16851;53.564;8.112;2023-12-20T22:57:24;37.77;;;5.13;;
30010;SDS011;16851;53.564;8.112;2023-12-20T23:02:26;38.27;;;5.67;;
30010;SDS011;16851;53.564;8.112;2023-12-20T23:07:34;33.40;;;4.43;;
30010;SDS011;16851;53.564;8.112;2023-12-20T23:12:37;32.87;;;5.57;;
30010;SDS011;16851;53.564;8.112;2023-12-20T23:17:40;42.03;;;5.77;;
30010;SDS011;16851;53.564;8.112;2023-12-20T23:22:43;49.60;;;5.80;;
30010;SDS011;16851;53.564;8.112;2023-12-20T23:27:48;39.10;;;5.50;;
30010;SDS011;16851;53.564;8.112;2023-12-20T23:32:53;49.87;;;6.13;;
30010;SDS011;16851;53.564;8.112;2023-12-20T23:37:57;37.83;;;5.00;;
30010;SDS011;16851;53.564;8.112;2023-12-20T23:43:01;48.93;;;4.47;;
30010;SDS011;16851;53.564;8.112;2023-12-20T23:48:04;39.73;;;5.70;;
30010;SDS011;16851;53.564;8.112;2023-12-20T23:53:06;30.13;;;4.53;;
30010;SDS011;16851;53.564;8.112;2023-12-20T23:58:11;37.63;;;5.03;;
